Time;durP1;ratioP1;P1;durP2;ratioP2;P2;SDS_P1;SDS_P2;PMS_P1;PMS_P2;Temp;Humidity;BMP_temperature;BMP_pressure;BME280_temperature;BME280_humidity;BME280_pressure;Samples;Min_cycle;Max_cycle;Signal;HPM_P1;HPM_P2
2022/11/07 00:02:03;;;;;;;8.55;3.95;;;;;;;;;;5084029;28;20051;-55
2022/11/07 00:04:29;;;;;;;11.10;4.30;;;;;;;;;;5080552;28;20048;-55
2022/11/07 00:06:54;;;;;;;9.27;3.92;;;;;;;;;;5076409;28;20034;-56
2022/11/07 00:09:19;;;;;;;8.77;4.18;;;;;;;;;;5073056;28;20032;-56
2022/11/07 00:11:45;;;;;;;10.80;3.90;;;;;;;;;;5078166;28;20016;-57
2022/11/07 00:14:12;;;;;;;12.65;4.25;;;;;;;;;;5086798;28;20040;-56
2022/11/07 00:16:37;;;;;;;10.38;4.38;;;;;;;;;;5095858;28;20034;-56
2022/11/07 00:19:02;;;;;;;10.70;3.90;;;;;;;;;;5109090;27;20020;-56
2022/11/07 00:21:27;;;;;;;9.38;4.05;;;;;;;;;;5078393;28;20112;-56
2022/11/07 00:23:53;;;;;;;10.48;4.70;;;;;;;;;;5078843;28;20015;-56
2022/11/07 00:26:18;;;;;;;8.57;4.15;;;;;;;;;;5050002;28;20078;-55
2022/11/07 00:28:43;;;;;;;8.40;4.60;;;;;;;;;;5081033;28;20110;-56
2022/11/07 00:31:09;;;;;;;13.35;4.63;;;;;;;;;;5084337;28;20086;-56
2022/11/07 00:33:34;;;;;;;8.30;4.40;;;;;;;;;;5080572;28;20488;-55
2022/11/07 00:35:59;;;;;;;11.20;4.60;;;;;;;;;;5075525;28;20103;-56
2022/11/07 00:38:25;;;;;;;13.68;4.70;;;;;;;;;;5076709;28;20016;-55
2022/11/07 00:40:57;;;;;;;12.73;4.50;;;;;;;;;;5076020;28;20029;-56
2022/11/07 00:43:22;;;;;;;8.90;4.15;;;;;;;;;;5081509;28;20412;-56
2022/11/07 00:45:47;;;;;;;11.50;6.00;;;;;;;;;;5077338;28;20031;-55
2022/11/07 00:48:12;;;;;;;13.95;4.85;;;;;;;;;;5081690;28;20028;-56
2022/11/07 00:50:37;;;;;;;12.70;5.05;;;;;;;;;;5076296;28;20468;-56
2022/11/07 00:53:03;;;;;;;10.77;5.13;;;;;;;;;;5075896;28;20647;-56
2022/11/07 00:55:28;;;;;;;10.80;4.90;;;;;;;;;;5071011;28;20020;-56
2022/11/07 00:57:54;;;;;;;14.25;4.78;;;;;;;;;;5082204;28;20072;-55
2022/11/07 01:00:19;;;;;;;11.57;5.13;;;;;;;;;;5090498;28;20028;-55
2022/11/07 01:05:09;;;;;;;12.73;4.63;;;;;;;;;;5077992;28;20074;-55
2022/11/07 01:05:30;;;;;;;11.48;5.47;;;;;;;;;;5076445;28;20399;-56
2022/11/07 01:07:55;;;;;;;17.45;5.15;;;;;;;;;;5075898;28;20032;-56
2022/11/07 01:10:20;;;;;;;6.82;4.35;;;;;;;;;;5069298;28;20108;-56
2022/11/07 01:12:45;;;;;;;7.45;4.35;;;;;;;;;;5082992;28;20073;-55
2022/11/07 01:15:10;;;;;;;9.90;4.57;;;;;;;;;;5071555;28;20039;-55
2022/11/07 01:17:36;;;;;;;16.05;5.20;;;;;;;;;;5090748;28;20039;-56
2022/11/07 01:20:01;;;;;;;9.45;4.30;;;;;;;;;;5089236;28;20110;-55
2022/11/07 01:22:26;;;;;;;8.35;4.57;;;;;;;;;;5075836;28;20104;-56
2022/11/07 01:24:51;;;;;;;11.70;4.00;;;;;;;;;;5075532;28;20746;-55
2022/11/07 01:27:17;;;;;;;7.68;4.28;;;;;;;;;;5080524;28;20016;-56
2022/11/07 01:29:42;;;;;;;13.73;4.57;;;;;;;;;;5085212;28;20761;-56
2022/11/07 01:32:07;;;;;;;13.25;4.63;;;;;;;;;;5070697;28;20078;-55
2022/11/07 01:34:32;;;;;;;10.85;4.50;;;;;;;;;;5080939;28;20524;-54
2022/11/07 01:36:58;;;;;;;9.73;4.40;;;;;;;;;;5083791;28;20024;-57
2022/11/07 01:39:24;;;;;;;12.40;4.72;;;;;;;;;;5081503;28;20669;-56
2022/11/07 01:41:49;;;;;;;10.57;4.30;;;;;;;;;;5079031;28;20020;-55
2022/11/07 01:44:14;;;;;;;9.02;4.10;;;;;;;;;;5078222;28;20055;-56
2022/11/07 01:46:40;;;;;;;12.00;4.13;;;;;;;;;;5079615;28;20012;-55
2022/11/07 01:49:07;;;;;;;10.32;4.30;;;;;;;;;;5087012;28;20043;-55
2022/11/07 01:51:34;;;;;;;12.40;4.85;;;;;;;;;;5079025;28;20104;-56
2022/11/07 01:53:59;;;;;;;10.45;4.30;;;;;;;;;;5077858;28;20027;-56
2022/11/07 01:56:25;;;;;;;15.38;4.53;;;;;;;;;;5078654;28;20108;-55
2022/11/07 01:58:50;;;;;;;7.45;4.20;;;;;;;;;;5077714;28;20068;-56
2022/11/07 02:01:15;;;;;;;7.80;3.92;;;;;;;;;;5070903;28;20103;-55
2022/11/07 02:03:41;;;;;;;10.10;4.60;;;;;;;;;;5080081;28;20027;-55
2022/11/07 02:06:08;;;;;;;12.00;4.32;;;;;;;;;;5074724;28;20055;-56
2022/11/07 02:08:33;;;;;;;7.38;4.05;;;;;;;;;;5089488;28;20028;-56
2022/11/07 02:11:01;;;;;;;16.63;5.10;;;;;;;;;;5088233;28;20042;-56
2022/11/07 02:13:26;;;;;;;7.03;3.58;;;;;;;;;;5087172;28;20039;-56
2022/11/07 02:15:52;;;;;;;10.98;4.07;;;;;;;;;;5071484;28;20040;-57
2022/11/07 02:18:17;;;;;;;12.82;4.22;;;;;;;;;;5078626;28;20288;-55
2022/11/07 02:20:43;;;;;;;13.45;4.00;;;;;;;;;;5116675;27;20020;-55
2022/11/07 02:23:10;;;;;;;8.88;4.00;;;;;;;;;;5080706;28;20525;-55
2022/11/07 02:25:35;;;;;;;12.02;3.90;;;;;;;;;;5079912;28;20013;-55
2022/11/07 02:28:01;;;;;;;7.80;3.60;;;;;;;;;;5086196;28;20362;-55
2022/11/07 02:30:26;;;;;;;9.43;4.30;;;;;;;;;;5080322;28;20066;-56
2022/11/07 02:32:52;;;;;;;7.43;3.67;;;;;;;;;;5081123;28;20526;-56
2022/11/07 02:35:47;;;;;;;9.93;4.03;;;;;;;;;;5076664;28;20026;-55
2022/11/07 02:38:15;;;;;;;8.80;4.00;;;;;;;;;;5071336;28;20032;-55
2022/11/07 02:40:40;;;;;;;12.82;3.70;;;;;;;;;;5082512;28;20042;-55
2022/11/07 02:43:05;;;;;;;9.98;3.67;;;;;;;;;;5076256;28;20522;-56
2022/11/07 02:45:34;;;;;;;7.10;3.58;;;;;;;;;;5086396;28;20017;-55
2022/11/07 02:47:59;;;;;;;9.02;3.53;;;;;;;;;;5084660;28;20110;-56
2022/11/07 02:50:25;;;;;;;7.40;3.60;;;;;;;;;;5078464;28;20114;-55
2022/11/07 02:52:50;;;;;;;13.85;3.35;;;;;;;;;;5075818;28;20280;-56
2022/11/07 02:55:15;;;;;;;8.60;3.80;;;;;;;;;;5079767;28;20021;-55
2022/11/07 02:57:40;;;;;;;7.97;3.55;;;;;;;;;;5084764;28;20077;-55
2022/11/07 03:00:06;;;;;;;9.13;3.55;;;;;;;;;;5075402;28;20030;-55
2022/11/07 03:02:31;;;;;;;10.88;3.60;;;;;;;;;;5080932;28;20671;-56
2022/11/07 03:04:57;;;;;;;11.02;3.42;;;;;;;;;;5076154;28;20114;-55
2022/11/07 03:07:22;;;;;;;12.20;3.50;;;;;;;;;;5076891;28;20031;-56
2022/11/07 03:09:48;;;;;;;6.15;3.22;;;;;;;;;;5075172;28;20028;-56
2022/11/07 03:12:13;;;;;;;10.63;3.55;;;;;;;;;;5080688;28;20012;-56
2022/11/07 03:14:38;;;;;;;14.93;3.97;;;;;;;;;;5081512;28;20492;-55
2022/11/07 03:17:03;;;;;;;9.40;4.05;;;;;;;;;;5091556;28;20054;-55
2022/11/07 03:19:29;;;;;;;9.13;3.65;;;;;;;;;;5083259;28;20056;-55
2022/11/07 03:21:54;;;;;;;12.18;3.67;;;;;;;;;;5085987;28;20227;-56
2022/11/07 03:24:19;;;;;;;6.65;3.13;;;;;;;;;;5073394;28;20020;-56
2022/11/07 03:26:44;;;;;;;8.93;3.47;;;;;;;;;;5092224;28;20027;-55
2022/11/07 03:29:10;;;;;;;8.18;2.90;;;;;;;;;;5071794;28;20115;-55
2022/11/07 03:31:35;;;;;;;10.02;3.42;;;;;;;;;;5086624;28;20028;-56
2022/11/07 03:34:00;;;;;;;13.68;3.50;;;;;;;;;;5082190;28;20027;-56
2022/11/07 03:36:25;;;;;;;12.70;3.63;;;;;;;;;;5079666;28;20024;-56
2022/11/07 03:38:51;;;;;;;15.85;3.47;;;;;;;;;;5083784;28;20015;-56
2022/11/07 03:41:16;;;;;;;7.93;3.40;;;;;;;;;;5074725;28;20670;-55
2022/11/07 03:43:44;;;;;;;9.30;3.17;;;;;;;;;;5084766;28;20024;-57
2022/11/07 03:46:13;;;;;;;12.27;3.72;;;;;;;;;;5081469;28;20051;-56
2022/11/07 03:48:38;;;;;;;6.63;3.28;;;;;;;;;;5078962;28;20031;-55
2022/11/07 03:51:04;;;;;;;9.43;3.72;;;;;;;;;;5072369;28;20020;-56
2022/11/07 03:53:29;;;;;;;8.00;3.03;;;;;;;;;;5081139;28;20100;-56
2022/11/07 03:55:54;;;;;;;11.63;3.50;;;;;;;;;;5081706;28;20073;-56
2022/11/07 03:58:20;;;;;;;7.72;2.97;;;;;;;;;;5077292;28;20016;-56
2022/11/07 04:00:45;;;;;;;10.77;3.38;;;;;;;;;;5083227;28;20053;-56
2022/11/07 04:03:10;;;;;;;12.55;3.53;;;;;;;;;;5068552;28;20070;-57
2022/11/07 04:05:35;;;;;;;9.32;3.20;;;;;;;;;;5112644;27;20135;-55
2022/11/07 04:08:00;;;;;;;8.75;2.80;;;;;;;;;;5081510;28;20020;-56
2022/11/07 04:10:26;;;;;;;8.00;3.05;;;;;;;;;;5070858;28;20487;-55
2022/11/07 04:18:20;;;;;;;13.38;3.20;;;;;;;;;;5082240;28;20485;-56
2022/11/07 04:20:45;;;;;;;11.77;3.05;;;;;;;;;;5076330;28;20020;-55
2022/11/07 04:23:10;;;;;;;10.75;3.25;;;;;;;;;;5079665;28;20021;-56
2022/11/07 04:28:19;;;;;;;9.20;2.60;;;;;;;;;;5073252;28;20056;-56
2022/11/07 04:30:45;;;;;;;10.00;2.88;;;;;;;;;;5078255;28;20028;-56
2022/11/07 04:33:10;;;;;;;6.40;2.28;;;;;;;;;;5075033;28;20070;-56
2022/11/07 04:35:35;;;;;;;9.80;2.47;;;;;;;;;;5088693;28;20425;-55
2022/11/07 04:38:00;;;;;;;13.60;3.28;;;;;;;;;;5078932;28;20074;-56
2022/11/07 04:40:26;;;;;;;13.20;2.83;;;;;;;;;;5081909;28;20453;-56
2022/11/07 04:42:51;;;;;;;15.68;3.10;;;;;;;;;;5081691;28;20353;-56
2022/11/07 04:45:16;;;;;;;11.57;2.90;;;;;;;;;;5078035;28;20031;-56
2022/11/07 04:47:42;;;;;;;7.15;2.42;;;;;;;;;;5087093;28;20085;-56
2022/11/07 04:50:08;;;;;;;9.23;2.63;;;;;;;;;;5076038;28;20078;-55
2022/11/07 04:52:33;;;;;;;11.90;2.75;;;;;;;;;;5072242;28;20054;-55
2022/11/07 04:54:58;;;;;;;9.75;2.83;;;;;;;;;;5080229;28;20104;-56
2022/11/07 04:57:24;;;;;;;14.45;2.70;;;;;;;;;;5104915;27;20044;-55
2022/11/07 04:59:49;;;;;;;8.95;2.80;;;;;;;;;;5082343;28;20341;-55
2022/11/07 05:02:14;;;;;;;10.07;2.72;;;;;;;;;;5082837;28;20022;-56
2022/11/07 05:04:39;;;;;;;8.20;2.55;;;;;;;;;;5083170;28;20044;-56
2022/11/07 05:07:05;;;;;;;15.48;2.63;;;;;;;;;;5083259;28;20020;-56
2022/11/07 05:09:30;;;;;;;7.43;2.50;;;;;;;;;;5076812;28;20091;-56
2022/11/07 05:11:55;;;;;;;7.13;2.55;;;;;;;;;;5072516;28;20101;-56
2022/11/07 05:14:21;;;;;;;12.77;2.70;;;;;;;;;;5078608;28;20131;-56
2022/11/07 05:16:46;;;;;;;8.80;2.40;;;;;;;;;;5081015;28;20025;-56
2022/11/07 05:19:15;;;;;;;9.70;2.65;;;;;;;;;;5078127;28;20016;-56
2022/11/07 05:21:40;;;;;;;13.30;2.67;;;;;;;;;;5084350;28;20038;-56
2022/11/07 05:24:06;;;;;;;7.38;2.25;;;;;;;;;;5077798;28;20474;-57
2022/11/07 05:26:31;;;;;;;15.63;3.63;;;;;;;;;;5094039;28;20055;-57
2022/11/07 05:28:56;;;;;;;12.10;2.40;;;;;;;;;;5085820;28;20442;-56
2022/11/07 05:31:21;;;;;;;14.88;2.70;;;;;;;;;;5077661;28;20123;-55
2022/11/07 05:33:46;;;;;;;8.13;2.45;;;;;;;;;;5090199;28;20015;-55
2022/11/07 05:36:15;;;;;;;8.60;2.50;;;;;;;;;;5087441;28;20293;-56
2022/11/07 05:38:41;;;;;;;17.42;3.00;;;;;;;;;;5082714;28;20020;-54
2022/11/07 05:41:06;;;;;;;10.77;2.70;;;;;;;;;;5096531;28;20356;-56
2022/11/07 05:43:32;;;;;;;9.43;2.38;;;;;;;;;;5091917;28;20032;-56
2022/11/07 05:45:57;;;;;;;13.65;2.45;;;;;;;;;;5081734;28;20577;-55
2022/11/07 05:48:23;;;;;;;16.63;2.60;;;;;;;;;;5080010;28;20031;-56
2022/11/07 05:50:48;;;;;;;8.25;2.67;;;;;;;;;;5081189;28;20029;-57
2022/11/07 05:53:13;;;;;;;11.88;2.67;;;;;;;;;;5082087;28;20015;-56
2022/11/07 05:55:38;;;;;;;10.38;2.58;;;;;;;;;;5093123;28;20019;-57
2022/11/07 05:58:09;;;;;;;13.02;2.45;;;;;;;;;;5083097;28;20022;-57
2022/11/07 06:00:34;;;;;;;12.57;2.60;;;;;;;;;;5080369;28;20110;-56
2022/11/07 06:03:00;;;;;;;9.90;2.30;;;;;;;;;;5081520;28;20202;-55
2022/11/07 06:05:25;;;;;;;10.38;2.50;;;;;;;;;;5081837;28;20113;-56
2022/11/07 06:07:50;;;;;;;7.97;2.38;;;;;;;;;;5075191;28;20023;-55
2022/11/07 06:10:16;;;;;;;10.20;2.40;;;;;;;;;;5081258;28;20020;-56
2022/11/07 06:12:41;;;;;;;15.38;3.15;;;;;;;;;;5082700;28;20020;-57
2022/11/07 06:15:06;;;;;;;10.15;2.50;;;;;;;;;;5079820;28;20024;-56
2022/11/07 06:17:32;;;;;;;13.65;2.72;;;;;;;;;;5075490;28;20023;-56
2022/11/07 06:19:57;;;;;;;12.10;3.03;;;;;;;;;;5078062;28;20096;-57
2022/11/07 06:22:24;;;;;;;8.45;2.13;;;;;;;;;;5078979;28;20024;-56
2022/11/07 06:24:49;;;;;;;9.38;2.55;;;;;;;;;;5073841;28;20416;-56
2022/11/07 06:27:14;;;;;;;6.75;2.28;;;;;;;;;;5056217;28;20058;-57
2022/11/07 06:29:39;;;;;;;11.00;3.03;;;;;;;;;;5079749;28;20042;-57
2022/11/07 06:32:05;;;;;;;12.38;2.35;;;;;;;;;;5083482;28;20020;-55
2022/11/07 06:34:30;;;;;;;11.88;2.58;;;;;;;;;;5082759;28;20036;-56
2022/11/07 06:36:55;;;;;;;8.55;2.60;;;;;;;;;;5080460;28;20569;-56
2022/11/07 06:39:21;;;;;;;11.50;2.20;;;;;;;;;;5077659;28;21379;-56
2022/11/07 06:41:47;;;;;;;12.57;3.20;;;;;;;;;;5094033;28;20027;-56
2022/11/07 06:44:12;;;;;;;8.25;2.45;;;;;;;;;;5086280;28;20032;-55
2022/11/07 06:46:37;;;;;;;10.55;2.72;;;;;;;;;;5076596;28;20024;-56
2022/11/07 06:49:02;;;;;;;11.75;2.42;;;;;;;;;;5080993;28;20413;-56
2022/11/07 06:51:28;;;;;;;8.80;2.30;;;;;;;;;;5106258;27;20068;-55
2022/11/07 06:53:53;;;;;;;7.72;2.50;;;;;;;;;;5085441;28;20024;-57
2022/11/07 06:56:18;;;;;;;7.38;2.33;;;;;;;;;;5076511;28;20085;-56
2022/11/07 06:58:43;;;;;;;12.32;2.50;;;;;;;;;;5079624;28;20027;-56
2022/11/07 07:01:12;;;;;;;8.73;2.67;;;;;;;;;;5079586;28;20498;-56
2022/11/07 07:03:37;;;;;;;11.25;2.60;;;;;;;;;;5069458;28;20688;-56
2022/11/07 07:06:03;;;;;;;15.73;3.05;;;;;;;;;;5078410;28;20045;-56
2022/11/07 07:08:28;;;;;;;10.35;2.40;;;;;;;;;;5073049;28;20447;-56
2022/11/07 07:10:53;;;;;;;10.98;2.50;;;;;;;;;;5080097;28;20051;-58
2022/11/07 07:13:19;;;;;;;12.27;2.42;;;;;;;;;;5083013;28;20009;-58
2022/11/07 07:15:51;;;;;;;13.75;2.45;;;;;;;;;;5075234;28;20023;-57
2022/11/07 07:18:16;;;;;;;12.85;2.90;;;;;;;;;;5079067;28;20378;-57
2022/11/07 07:20:41;;;;;;;14.43;2.30;;;;;;;;;;5083745;28;20015;-57
2022/11/07 07:23:07;;;;;;;11.63;2.85;;;;;;;;;;5072792;28;20020;-57
2022/11/07 07:25:32;;;;;;;14.20;2.53;;;;;;;;;;5078189;28;20024;-57
2022/11/07 07:27:57;;;;;;;10.60;2.50;;;;;;;;;;5073179;28;20020;-57
2022/11/07 07:30:23;;;;;;;14.60;2.40;;;;;;;;;;5087795;28;20436;-56
2022/11/07 07:32:49;;;;;;;11.63;2.75;;;;;;;;;;5073658;28;20119;-56
2022/11/07 07:35:14;;;;;;;10.18;2.28;;;;;;;;;;5074339;28;20374;-58
2022/11/07 07:37:39;;;;;;;9.90;2.30;;;;;;;;;;5084228;28;20108;-56
2022/11/07 07:40:05;;;;;;;10.75;2.53;;;;;;;;;;5074734;28;20032;-56
2022/11/07 07:42:30;;;;;;;12.20;2.65;;;;;;;;;;5076677;28;20021;-56
2022/11/07 07:44:55;;;;;;;12.35;2.40;;;;;;;;;;5078458;28;20023;-55
2022/11/07 07:47:21;;;;;;;11.93;2.58;;;;;;;;;;5094074;28;20127;-57
2022/11/07 07:49:46;;;;;;;10.43;2.40;;;;;;;;;;5084532;28;20105;-57
2022/11/07 07:52:11;;;;;;;9.93;2.33;;;;;;;;;;5079607;28;20024;-57
2022/11/07 07:54:36;;;;;;;16.40;2.75;;;;;;;;;;5071987;28;20037;-57
2022/11/07 07:57:02;;;;;;;10.07;2.67;;;;;;;;;;5078279;28;20165;-56
2022/11/07 07:59:27;;;;;;;14.48;2.70;;;;;;;;;;5088061;28;20027;-57
2022/11/07 08:01:53;;;;;;;12.15;2.60;;;;;;;;;;5079278;28;20031;-58
2022/11/07 08:04:18;;;;;;;9.98;2.85;;;;;;;;;;5083063;28;20052;-57
2022/11/07 08:06:43;;;;;;;10.93;2.40;;;;;;;;;;5088579;28;20019;-56
2022/11/07 08:09:08;;;;;;;10.77;2.30;;;;;;;;;;5077734;28;20023;-57
2022/11/07 08:11:34;;;;;;;10.00;2.20;;;;;;;;;;5081629;28;20084;-56
2022/11/07 08:13:59;;;;;;;12.90;2.40;;;;;;;;;;5084522;28;20012;-57
2022/11/07 08:16:24;;;;;;;14.80;2.60;;;;;;;;;;5083126;28;20664;-57
2022/11/07 08:18:49;;;;;;;12.63;2.78;;;;;;;;;;5078014;28;20008;-55
2022/11/07 08:21:15;;;;;;;16.02;2.60;;;;;;;;;;5080057;28;20035;-58
2022/11/07 08:23:40;;;;;;;19.15;2.42;;;;;;;;;;5079136;28;20413;-55
2022/11/07 08:26:05;;;;;;;14.43;2.85;;;;;;;;;;5083034;28;20070;-57
2022/11/07 08:28:31;;;;;;;12.10;2.60;;;;;;;;;;5072556;28;20474;-57
2022/11/07 08:30:57;;;;;;;8.23;2.35;;;;;;;;;;5076838;28;20046;-57
2022/11/07 08:33:23;;;;;;;8.52;2.30;;;;;;;;;;5077226;28;20395;-56
2022/11/07 08:35:48;;;;;;;14.05;2.85;;;;;;;;;;5086678;28;20118;-56
2022/11/07 08:38:13;;;;;;;11.88;2.15;;;;;;;;;;5077673;28;20036;-55
2022/11/07 08:40:38;;;;;;;8.27;2.17;;;;;;;;;;5092443;28;20490;-56
2022/11/07 08:43:04;;;;;;;12.45;2.30;;;;;;;;;;5080194;28;20554;-56
2022/11/07 08:45:29;;;;;;;14.73;2.80;;;;;;;;;;5079418;28;20039;-56
2022/11/07 08:47:55;;;;;;;10.68;2.30;;;;;;;;;;5082009;28;20015;-58
2022/11/07 08:50:20;;;;;;;16.02;2.70;;;;;;;;;;5077474;28;20043;-55
2022/11/07 08:52:46;;;;;;;14.02;2.58;;;;;;;;;;5084174;28;20381;-57
2022/11/07 08:55:11;;;;;;;13.45;2.40;;;;;;;;;;5082876;28;20128;-57
2022/11/07 08:57:36;;;;;;;14.15;2.70;;;;;;;;;;5085960;28;20370;-57
2022/11/07 09:00:02;;;;;;;10.05;2.20;;;;;;;;;;5085685;28;20019;-57
2022/11/07 09:02:27;;;;;;;10.48;2.53;;;;;;;;;;5081229;28;20028;-58
2022/11/07 09:04:53;;;;;;;9.93;2.63;;;;;;;;;;5075603;28;20051;-56
2022/11/07 09:07:18;;;;;;;13.52;2.42;;;;;;;;;;5078549;28;20441;-57
2022/11/07 09:09:43;;;;;;;13.90;2.10;;;;;;;;;;5115751;27;20446;-59
2022/11/07 09:12:08;;;;;;;8.50;2.17;;;;;;;;;;5073186;28;20040;-58
2022/11/07 09:14:34;;;;;;;10.55;2.35;;;;;;;;;;5075347;28;20027;-55
2022/11/07 09:16:59;;;;;;;11.57;2.30;;;;;;;;;;5072735;28;20257;-57
2022/11/07 09:19:24;;;;;;;12.70;2.13;;;;;;;;;;5085751;28;20482;-57
2022/11/07 09:21:49;;;;;;;9.75;2.38;;;;;;;;;;5071731;28;20478;-55
2022/11/07 09:24:14;;;;;;;10.07;2.47;;;;;;;;;;5068110;28;20553;-55
2022/11/07 09:26:40;;;;;;;12.48;2.88;;;;;;;;;;5085237;28;20031;-56
2022/11/07 09:29:05;;;;;;;9.27;2.30;;;;;;;;;;5071201;28;20029;-56
2022/11/07 09:31:30;;;;;;;11.98;2.22;;;;;;;;;;5075028;28;20009;-56
2022/11/07 09:33:55;;;;;;;8.27;2.33;;;;;;;;;;5078459;28;20059;-56
2022/11/07 09:36:22;;;;;;;8.05;2.08;;;;;;;;;;5068648;28;20035;-55
2022/11/07 09:38:48;;;;;;;11.18;2.28;;;;;;;;;;5070097;28;20024;-55
2022/11/07 09:41:36;;;;;;;10.20;2.60;;;;;;;;;;5081539;28;20077;-56
2022/11/07 09:44:20;;;;;;;10.23;3.00;;;;;;;;;;5064283;28;20058;-55
2022/11/07 09:46:52;;;;;;;33.53;3.58;;;;;;;;;;5076107;28;20034;-56
2022/11/07 09:49:21;;;;;;;11.63;2.17;;;;;;;;;;5079786;28;20032;-56
2022/11/07 09:51:46;;;;;;;12.15;2.35;;;;;;;;;;5086197;28;20427;-56
2022/11/07 09:54:13;;;;;;;11.38;2.45;;;;;;;;;;5070085;28;20020;-57
2022/11/07 09:56:39;;;;;;;12.98;2.60;;;;;;;;;;5109546;27;20102;-56
2022/11/07 09:59:05;;;;;;;12.02;2.60;;;;;;;;;;5084216;28;20107;-55
2022/11/07 10:01:31;;;;;;;11.38;2.40;;;;;;;;;;5086391;28;20378;-56
2022/11/07 10:03:56;;;;;;;11.48;2.47;;;;;;;;;;5078087;28;20012;-56
2022/11/07 10:06:25;;;;;;;11.40;2.40;;;;;;;;;;5078623;28;20036;-56
2022/11/07 10:08:52;;;;;;;15.63;2.77;;;;;;;;;;5081668;28;20082;-56
2022/11/07 10:11:37;;;;;;;12.05;2.33;;;;;;;;;;5080631;28;20390;-55
2022/11/07 10:14:20;;;;;;;13.68;2.38;;;;;;;;;;5071362;28;20028;-56
2022/11/07 10:17:18;;;;;;;15.73;2.83;;;;;;;;;;5076858;28;20024;-55
2022/11/07 10:19:43;;;;;;;9.13;2.30;;;;;;;;;;5054028;28;20035;-56
2022/11/07 10:22:21;;;;;;;14.77;2.70;;;;;;;;;;5073874;28;20104;-55
2022/11/07 10:25:13;;;;;;;9.98;2.42;;;;;;;;;;5078116;28;20019;-56
2022/11/07 10:27:39;;;;;;;12.27;2.30;;;;;;;;;;5064905;28;20024;-56
2022/11/07 10:30:07;;;;;;;18.20;3.10;;;;;;;;;;5074673;28;20035;-56
2022/11/07 10:32:33;;;;;;;16.75;2.85;;;;;;;;;;5065140;28;20121;-55
2022/11/07 10:35:17;;;;;;;15.63;3.17;;;;;;;;;;5075202;28;20024;-56
2022/11/07 10:37:42;;;;;;;12.00;2.55;;;;;;;;;;5078888;28;20013;-56
2022/11/07 10:40:14;;;;;;;13.20;2.47;;;;;;;;;;5082647;28;20026;-54
2022/11/07 10:42:39;;;;;;;12.25;3.00;;;;;;;;;;5076384;28;20012;-55
2022/11/07 10:45:04;;;;;;;12.43;2.53;;;;;;;;;;5075863;28;20020;-55
2022/11/07 10:47:30;;;;;;;11.05;2.30;;;;;;;;;;5079318;28;20021;-55
2022/11/07 10:49:56;;;;;;;15.98;2.70;;;;;;;;;;5077273;28;20081;-55
2022/11/07 10:52:21;;;;;;;14.13;2.75;;;;;;;;;;5075185;28;20715;-57
2022/11/07 10:54:47;;;;;;;11.05;2.47;;;;;;;;;;5076214;28;20055;-57
2022/11/07 10:57:15;;;;;;;8.30;2.58;;;;;;;;;;5085250;28;20048;-56
2022/11/07 10:59:50;;;;;;;13.57;2.20;;;;;;;;;;5070312;28;20319;-55
2022/11/07 11:02:15;;;;;;;11.93;2.40;;;;;;;;;;5078576;28;20016;-56
2022/11/07 11:04:45;;;;;;;9.15;2.17;;;;;;;;;;5091607;28;20558;-56
2022/11/07 11:07:11;;;;;;;8.43;2.10;;;;;;;;;;5072783;28;20032;-55
2022/11/07 11:09:37;;;;;;;10.70;2.45;;;;;;;;;;5071586;28;20044;-55
2022/11/07 11:12:06;;;;;;;15.82;2.38;;;;;;;;;;5087029;28;20069;-55
2022/11/07 11:14:31;;;;;;;17.58;3.40;;;;;;;;;;5114496;27;20075;-56
2022/11/07 11:16:56;;;;;;;11.13;2.65;;;;;;;;;;5085234;28;20102;-55
2022/11/07 11:19:25;;;;;;;17.25;2.65;;;;;;;;;;5083676;28;20086;-56
2022/11/07 11:21:51;;;;;;;12.43;3.00;;;;;;;;;;5087061;28;20028;-55
2022/11/07 11:24:22;;;;;;;15.10;3.30;;;;;;;;;;5081738;28;20719;-56
2022/11/07 11:26:49;;;;;;;11.07;2.80;;;;;;;;;;5090221;28;20023;-56
2022/11/07 11:29:19;;;;;;;10.32;2.65;;;;;;;;;;5057054;28;20082;-55
2022/11/07 11:31:45;;;;;;;15.80;2.67;;;;;;;;;;5069891;28;20102;-55
2022/11/07 11:34:15;;;;;;;11.15;2.45;;;;;;;;;;5105380;27;20104;-56
2022/11/07 11:36:42;;;;;;;11.15;2.20;;;;;;;;;;5070214;28;20020;-55
2022/11/07 11:39:34;;;;;;;12.65;2.13;;;;;;;;;;5110038;27;20101;-56
2022/11/07 11:41:59;;;;;;;6.88;2.33;;;;;;;;;;5057284;28;20036;-56
2022/11/07 11:44:24;;;;;;;10.68;2.40;;;;;;;;;;5071042;28;20145;-55
2022/11/07 11:47:08;;;;;;;11.18;2.63;;;;;;;;;;5083383;28;20382;-56
2022/11/07 11:49:42;;;;;;;12.82;2.47;;;;;;;;;;5086508;28;20189;-56
2022/11/07 11:52:11;;;;;;;12.13;2.13;;;;;;;;;;5081416;28;20143;-55
2022/11/07 11:54:36;;;;;;;17.80;2.40;;;;;;;;;;5090754;28;20597;-56
2022/11/07 11:57:16;;;;;;;10.15;2.53;;;;;;;;;;5115206;27;20027;-56
2022/11/07 11:59:54;;;;;;;6.22;2.10;;;;;;;;;;5086118;28;20024;-56
2022/11/07 12:02:37;;;;;;;11.00;2.20;;;;;;;;;;5091391;28;20040;-56
2022/11/07 12:05:03;;;;;;;11.48;2.28;;;;;;;;;;5092521;28;20074;-56
2022/11/07 12:08:07;;;;;;;9.57;2.20;;;;;;;;;;5074123;28;20029;-56
2022/11/07 12:10:32;;;;;;;9.80;2.05;;;;;;;;;;5035442;28;20029;-56
2022/11/07 12:13:10;;;;;;;10.27;2.00;;;;;;;;;;5024195;28;20495;-56
2022/11/07 12:15:40;;;;;;;11.40;2.28;;;;;;;;;;5050730;28;20568;-56
2022/11/07 12:18:05;;;;;;;;;;;;;;;;;;5085874;28;20144;-55
2022/11/07 12:20:44;;;;;;;9.73;2.40;;;;;;;;;;5080837;28;20346;-57
2022/11/07 12:23:13;;;;;;;9.35;2.20;;;;;;;;;;5069349;28;20280;-57
2022/11/07 12:25:57;;;;;;;6.68;2.13;;;;;;;;;;5106291;27;20032;-56
2022/11/07 12:28:22;;;;;;;8.00;2.40;;;;;;;;;;5083799;28;20040;-56
2022/11/07 12:31:23;;;;;;;7.00;1.98;;;;;;;;;;5087184;28;20036;-56
2022/11/07 12:34:14;;;;;;;9.10;1.85;;;;;;;;;;5025542;28;20021;-55
2022/11/07 12:36:44;;;;;;;11.82;2.28;;;;;;;;;;5071313;28;20024;-56
2022/11/07 12:39:29;;;;;;;9.55;1.98;;;;;;;;;;5077856;28;20032;-56
2022/11/07 12:41:59;;;;;;;11.88;2.20;;;;;;;;;;5072330;28;20028;-56
2022/11/07 12:44:38;;;;;;;8.35;2.30;;;;;;;;;;5075810;28;20028;-56
2022/11/07 12:47:09;;;;;;;9.32;2.25;;;;;;;;;;5077526;28;20148;-56
2022/11/07 12:49:40;;;;;;;10.07;2.55;;;;;;;;;;5082050;28;20040;-56
2022/11/07 12:52:24;;;;;;;7.07;2.10;;;;;;;;;;5079834;28;20027;-56
2022/11/07 12:54:56;;;;;;;10.00;2.08;;;;;;;;;;5080582;28;20081;-56
2022/11/07 12:57:22;;;;;;;10.60;2.08;;;;;;;;;;5085400;28;20386;-55
2022/11/07 12:59:49;;;;;;;8.82;2.20;;;;;;;;;;5083454;28;20019;-55
2022/11/07 13:02:23;;;;;;;9.52;2.55;;;;;;;;;;5072137;28;20032;-56
2022/11/07 13:04:57;;;;;;;9.85;2.80;;;;;;;;;;5077837;28;20079;-54
2022/11/07 13:07:22;;;;;;;11.88;2.55;;;;;;;;;;5117357;27;20119;-57
2022/11/07 13:10:05;;;;;;;7.57;2.10;;;;;;;;;;5081603;28;20455;-55
2022/11/07 13:12:36;;;;;;;5.93;2.10;;;;;;;;;;5077307;28;20030;-54
2022/11/07 13:15:02;;;;;;;12.18;2.22;;;;;;;;;;5075965;28;20066;-55
2022/11/07 13:17:36;;;;;;;9.90;2.28;;;;;;;;;;5081779;28;20104;-58
2022/11/07 13:20:03;;;;;;;11.68;2.03;;;;;;;;;;5082011;28;20027;-56
2022/11/07 13:22:33;;;;;;;8.95;2.15;;;;;;;;;;5083024;28;20394;-56
2022/11/07 13:25:10;;;;;;;8.10;2.43;;;;;;;;;;5077185;28;20545;-57
2022/11/07 13:27:36;;;;;;;9.73;2.00;;;;;;;;;;5077027;28;20326;-57
2022/11/07 13:30:28;;;;;;;6.95;1.83;;;;;;;;;;5081831;28;20081;-55
2022/11/07 13:32:53;;;;;;;6.50;2.08;;;;;;;;;;5080910;28;20035;-56
2022/11/07 13:35:21;;;;;;;10.13;1.63;;;;;;;;;;5078413;28;20028;-56
2022/11/07 13:37:49;;;;;;;7.10;2.20;;;;;;;;;;5070532;28;20103;-56
2022/11/07 13:40:19;;;;;;;6.32;2.25;;;;;;;;;;5108890;27;20055;-56
2022/11/07 13:42:44;;;;;;;8.60;1.67;;;;;;;;;;5109877;27;20392;-56
2022/11/07 13:45:19;;;;;;;8.38;1.70;;;;;;;;;;5081189;28;20371;-56
2022/11/07 13:47:44;;;;;;;5.22;2.10;;;;;;;;;;5077450;28;20040;-56
2022/11/07 13:50:15;;;;;;;5.72;1.80;;;;;;;;;;5077787;28;20119;-56
2022/11/07 13:52:41;;;;;;;5.88;1.67;;;;;;;;;;5120796;27;20169;-56
2022/11/07 13:55:27;;;;;;;7.95;2.38;;;;;;;;;;5089448;28;20026;-56
2022/11/07 13:57:54;;;;;;;7.68;1.80;;;;;;;;;;5079555;28;20456;-56
2022/11/07 14:00:20;;;;;;;7.95;1.98;;;;;;;;;;5077090;28;20012;-56
2022/11/07 14:02:52;;;;;;;6.93;1.85;;;;;;;;;;5080454;28;20049;-57
2022/11/07 14:05:17;;;;;;;5.18;1.70;;;;;;;;;;5088453;28;20040;-56
2022/11/07 14:08:03;;;;;;;7.18;1.80;;;;;;;;;;5105684;27;20024;-55
2022/11/07 14:10:29;;;;;;;9.25;2.30;;;;;;;;;;5080239;28;20449;-56
2022/11/07 14:13:01;;;;;;;6.35;2.13;;;;;;;;;;5081559;28;20082;-54
2022/11/07 14:15:26;;;;;;;5.78;1.77;;;;;;;;;;5083295;28;20024;-56
2022/11/07 14:17:51;;;;;;;4.75;1.80;;;;;;;;;;5072476;28;20027;-56
2022/11/07 14:20:18;;;;;;;5.15;2.20;;;;;;;;;;5078834;28;20078;-55
2022/11/07 14:22:57;;;;;;;6.25;2.08;;;;;;;;;;5078617;28;20466;-55
2022/11/07 14:25:24;;;;;;;7.75;2.03;;;;;;;;;;5092520;28;20198;-55
2022/11/07 14:27:49;;;;;;;9.88;2.28;;;;;;;;;;5118099;27;20020;-55
2022/11/07 14:30:15;;;;;;;6.03;2.00;;;;;;;;;;5088246;28;20035;-55
2022/11/07 14:32:47;;;;;;;11.65;2.03;;;;;;;;;;5086191;28;20068;-55
2022/11/07 14:35:14;;;;;;;6.97;2.00;;;;;;;;;;5081344;28;20025;-56
2022/11/07 14:37:42;;;;;;;8.45;2.17;;;;;;;;;;5111988;27;20019;-57
2022/11/07 14:40:08;;;;;;;7.20;1.95;;;;;;;;;;5063849;28;20030;-57
2022/11/07 14:42:33;;;;;;;8.68;1.95;;;;;;;;;;5086152;28;20327;-56
2022/11/07 14:44:59;;;;;;;9.45;2.20;;;;;;;;;;5080555;28;20059;-57
2022/11/07 14:47:26;;;;;;;8.88;1.70;;;;;;;;;;5084818;28;20043;-57